sensor_id;sensor_type;location;lat;lon;timestamp;temperature;humidity
35531;DHT22;21637;53.352;-6.356;2022-12-18T00:00:56;0.40;99.90
35531;DHT22;21637;53.352;-6.356;2022-12-18T00:03:21;0.30;99.90
35531;DHT22;21637;53.352;-6.356;2022-12-18T00:05:47;0.30;99.90
35531;DHT22;21637;53.352;-6.356;2022-12-18T00:08:13;0.30;99.90
35531;DHT22;21637;53.352;-6.356;2022-12-18T00:10:39;0.30;99.90
35531;DHT22;21637;53.352;-6.356;2022-12-18T00:13:04;0.30;99.90
35531;DHT22;21637;53.352;-6.356;2022-12-18T00:15:30;0.40;99.90
35531;DHT22;21637;53.352;-6.356;2022-12-18T00:17:58;0.50;99.90
35531;DHT22;21637;53.352;-6.356;2022-12-18T00:20:23;0.50;99.90
35531;DHT22;21637;53.352;-6.356;2022-12-18T00:22:53;0.60;99.90
35531;DHT22;21637;53.352;-6.356;2022-12-18T00:25:19;0.70;99.90
35531;DHT22;21637;53.352;-6.356;2022-12-18T00:27:45;0.70;99.90
35531;DHT22;21637;53.352;-6.356;2022-12-18T00:30:11;0.80;99.90
35531;DHT22;21637;53.352;-6.356;2022-12-18T00:32:36;0.90;99.90
35531;DHT22;21637;53.352;-6.356;2022-12-18T00:35:02;1.10;99.90
35531;DHT22;21637;53.352;-6.356;2022-12-18T00:37:28;1.30;99.90
35531;DHT22;21637;53.352;-6.356;2022-12-18T00:39:54;1.50;99.90
35531;DHT22;21637;53.352;-6.356;2022-12-18T00:42:19;1.70;99.90
35531;DHT22;21637;53.352;-6.356;2022-12-18T00:45:04;2.00;99.90
35531;DHT22;21637;53.352;-6.356;2022-12-18T00:47:29;2.20;99.90
35531;DHT22;21637;53.352;-6.356;2022-12-18T00:49:55;2.20;99.90
35531;DHT22;21637;53.352;-6.356;2022-12-18T00:52:20;2.30;99.90
35531;DHT22;21637;53.352;-6.356;2022-12-18T00:54:46;2.50;99.90
35531;DHT22;21637;53.352;-6.356;2022-12-18T00:57:11;2.60;99.90
35531;DHT22;21637;53.352;-6.356;2022-12-18T00:59:37;2.60;99.90
35531;DHT22;21637;53.352;-6.356;2022-12-18T01:02:02;2.50;99.90
35531;DHT22;21637;53.352;-6.356;2022-12-18T01:04:30;2.50;99.90
35531;DHT22;21637;53.352;-6.356;2022-12-18T01:06:56;2.50;99.90
35531;DHT22;21637;53.352;-6.356;2022-12-18T01:09:21;2.50;99.90
35531;DHT22;21637;53.352;-6.356;2022-12-18T01:11:47;2.50;99.90
35531;DHT22;21637;53.352;-6.356;2022-12-18T01:14:13;2.50;99.90
35531;DHT22;21637;53.352;-6.356;2022-12-18T01:16:38;2.50;99.90
35531;DHT22;21637;53.352;-6.356;2022-12-18T01:19:04;2.40;99.90
35531;DHT22;21637;53.352;-6.356;2022-12-18T01:21:29;2.40;99.90
35531;DHT22;21637;53.352;-6.356;2022-12-18T01:23:55;2.20;99.90
35531;DHT22;21637;53.352;-6.356;2022-12-18T01:26:21;2.20;99.90
35531;DHT22;21637;53.352;-6.356;2022-12-18T01:28:47;2.20;99.90
35531;DHT22;21637;53.352;-6.356;2022-12-18T01:33:38;2.40;99.90
35531;DHT22;21637;53.352;-6.356;2022-12-18T01:36:04;2.60;99.90
35531;DHT22;21637;53.352;-6.356;2022-12-18T01:38:29;2.60;99.90
35531;DHT22;21637;53.352;-6.356;2022-12-18T01:40:58;2.60;99.90
35531;DHT22;21637;53.352;-6.356;2022-12-18T01:46:08;2.80;99.90
35531;DHT22;21637;53.352;-6.356;2022-12-18T01:48:34;2.90;99.90
35531;DHT22;21637;53.352;-6.356;2022-12-18T01:51:00;3.00;99.90
35531;DHT22;21637;53.352;-6.356;2022-12-18T01:53:26;3.10;99.90
35531;DHT22;21637;53.352;-6.356;2022-12-18T01:55:52;3.10;99.90
35531;DHT22;21637;53.352;-6.356;2022-12-18T01:58:19;3.10;99.90
35531;DHT22;21637;53.352;-6.356;2022-12-18T02:00:45;3.20;99.90
35531;DHT22;21637;53.352;-6.356;2022-12-18T02:03:11;3.30;99.90
35531;DHT22;21637;53.352;-6.356;2022-12-18T02:05:40;3.40;99.90
35531;DHT22;21637;53.352;-6.356;2022-12-18T02:13:10;3.70;99.90
35531;DHT22;21637;53.352;-6.356;2022-12-18T02:18:14;3.70;99.90
35531;DHT22;21637;53.352;-6.356;2022-12-18T02:20:45;3.70;99.90
35531;DHT22;21637;53.352;-6.356;2022-12-18T02:28:19;3.70;99.90
35531;DHT22;21637;53.352;-6.356;2022-12-18T02:30:45;3.60;99.90
35531;DHT22;21637;53.352;-6.356;2022-12-18T02:33:12;3.60;99.90
35531;DHT22;21637;53.352;-6.356;2022-12-18T02:35:39;3.60;99.90
35531;DHT22;21637;53.352;-6.356;2022-12-18T02:38:05;3.70;99.90
35531;DHT22;21637;53.352;-6.356;2022-12-18T02:40:31;3.70;99.90
35531;DHT22;21637;53.352;-6.356;2022-12-18T02:43:07;3.80;99.90
35531;DHT22;21637;53.352;-6.356;2022-12-18T02:45:33;3.80;99.90
35531;DHT22;21637;53.352;-6.356;2022-12-18T02:47:58;3.80;99.90
35531;DHT22;21637;53.352;-6.356;2022-12-18T02:53:01;3.80;99.90
35531;DHT22;21637;53.352;-6.356;2022-12-18T03:00:35;4.00;99.90
35531;DHT22;21637;53.352;-6.356;2022-12-18T03:03:25;4.10;99.90
35531;DHT22;21637;53.352;-6.356;2022-12-18T03:08:27;4.40;99.90
35531;DHT22;21637;53.352;-6.356;2022-12-18T03:11:10;4.40;99.90
35531;DHT22;21637;53.352;-6.356;2022-12-18T03:13:39;4.40;99.90
35531;DHT22;21637;53.352;-6.356;2022-12-18T03:16:06;4.50;99.90
35531;DHT22;21637;53.352;-6.356;2022-12-18T03:21:02;4.50;99.90
35531;DHT22;21637;53.352;-6.356;2022-12-18T03:23:32;4.50;99.90
35531;DHT22;21637;53.352;-6.356;2022-12-18T03:26:02;4.50;99.90
35531;DHT22;21637;53.352;-6.356;2022-12-18T03:28:29;4.60;99.90
35531;DHT22;21637;53.352;-6.356;2022-12-18T03:30:57;4.60;99.90
35531;DHT22;21637;53.352;-6.356;2022-12-18T03:33:25;4.60;99.90
35531;DHT22;21637;53.352;-6.356;2022-12-18T03:35:52;4.60;99.90
35531;DHT22;21637;53.352;-6.356;2022-12-18T03:38:18;4.70;99.90
35531;DHT22;21637;53.352;-6.356;2022-12-18T03:40:50;4.70;99.90
35531;DHT22;21637;53.352;-6.356;2022-12-18T03:46:02;4.90;99.90
35531;DHT22;21637;53.352;-6.356;2022-12-18T03:48:36;4.90;99.90
35531;DHT22;21637;53.352;-6.356;2022-12-18T03:51:07;4.80;99.90
35531;DHT22;21637;53.352;-6.356;2022-12-18T03:56:00;4.90;99.90
35531;DHT22;21637;53.352;-6.356;2022-12-18T03:58:26;4.90;99.90
35531;DHT22;21637;53.352;-6.356;2022-12-18T04:00:52;4.90;99.90
35531;DHT22;21637;53.352;-6.356;2022-12-18T04:03:19;4.90;99.90
35531;DHT22;21637;53.352;-6.356;2022-12-18T04:05:46;4.90;99.90
35531;DHT22;21637;53.352;-6.356;2022-12-18T04:08:13;5.00;99.90
35531;DHT22;21637;53.352;-6.356;2022-12-18T04:10:38;5.00;99.90
35531;DHT22;21637;53.352;-6.356;2022-12-18T04:13:04;5.10;99.90
35531;DHT22;21637;53.352;-6.356;2022-12-18T04:15:31;5.10;99.90
35531;DHT22;21637;53.352;-6.356;2022-12-18T04:17:57;5.10;99.90
35531;DHT22;21637;53.352;-6.356;2022-12-18T04:20:22;5.20;99.90
35531;DHT22;21637;53.352;-6.356;2022-12-18T04:22:48;5.20;99.90
35531;DHT22;21637;53.352;-6.356;2022-12-18T04:25:13;5.20;99.90
35531;DHT22;21637;53.352;-6.356;2022-12-18T04:27:39;5.20;99.90
35531;DHT22;21637;53.352;-6.356;2022-12-18T04:30:05;5.20;99.90
35531;DHT22;21637;53.352;-6.356;2022-12-18T04:32:30;5.20;99.90
35531;DHT22;21637;53.352;-6.356;2022-12-18T04:34:56;5.20;99.90
35531;DHT22;21637;53.352;-6.356;2022-12-18T04:37:21;5.20;99.90
35531;DHT22;21637;53.352;-6.356;2022-12-18T04:39:47;5.20;99.90
35531;DHT22;21637;53.352;-6.356;2022-12-18T04:42:13;5.20;99.90
35531;DHT22;21637;53.352;-6.356;2022-12-18T04:44:38;5.30;99.90
35531;DHT22;21637;53.352;-6.356;2022-12-18T04:47:04;5.30;99.90
35531;DHT22;21637;53.352;-6.356;2022-12-18T04:49:31;5.30;99.90
35531;DHT22;21637;53.352;-6.356;2022-12-18T04:51:57;5.30;99.90
35531;DHT22;21637;53.352;-6.356;2022-12-18T04:54:22;5.30;99.90
35531;DHT22;21637;53.352;-6.356;2022-12-18T04:56:48;5.40;99.90
35531;DHT22;21637;53.352;-6.356;2022-12-18T04:59:13;5.40;99.90
35531;DHT22;21637;53.352;-6.356;2022-12-18T05:01:39;5.40;99.90
35531;DHT22;21637;53.352;-6.356;2022-12-18T05:04:05;5.40;99.90
35531;DHT22;21637;53.352;-6.356;2022-12-18T05:06:30;5.40;99.90
35531;DHT22;21637;53.352;-6.356;2022-12-18T05:08:56;5.40;99.90
35531;DHT22;21637;53.352;-6.356;2022-12-18T05:11:21;5.40;99.90
35531;DHT22;21637;53.352;-6.356;2022-12-18T05:13:47;5.30;99.90
35531;DHT22;21637;53.352;-6.356;2022-12-18T05:16:13;5.30;99.90
35531;DHT22;21637;53.352;-6.356;2022-12-18T05:18:38;5.30;99.90
35531;DHT22;21637;53.352;-6.356;2022-12-18T05:21:04;5.30;99.90
35531;DHT22;21637;53.352;-6.356;2022-12-18T05:23:30;5.40;99.90
35531;DHT22;21637;53.352;-6.356;2022-12-18T05:25:57;5.40;99.90
35531;DHT22;21637;53.352;-6.356;2022-12-18T05:28:23;5.40;99.90
35531;DHT22;21637;53.352;-6.356;2022-12-18T05:30:49;5.50;99.90
35531;DHT22;21637;53.352;-6.356;2022-12-18T05:33:16;5.50;99.90
35531;DHT22;21637;53.352;-6.356;2022-12-18T05:35:41;5.50;99.90
35531;DHT22;21637;53.352;-6.356;2022-12-18T05:38:07;5.50;99.90
35531;DHT22;21637;53.352;-6.356;2022-12-18T05:40:32;5.50;99.90
35531;DHT22;21637;53.352;-6.356;2022-12-18T05:42:58;5.50;99.90
35531;DHT22;21637;53.352;-6.356;2022-12-18T05:45:23;5.50;99.90
35531;DHT22;21637;53.352;-6.356;2022-12-18T05:47:49;5.50;99.90
35531;DHT22;21637;53.352;-6.356;2022-12-18T05:50:15;5.50;99.90
35531;DHT22;21637;53.352;-6.356;2022-12-18T05:52:40;5.60;99.90
35531;DHT22;21637;53.352;-6.356;2022-12-18T05:55:06;5.50;99.90
35531;DHT22;21637;53.352;-6.356;2022-12-18T05:57:32;5.50;99.90
35531;DHT22;21637;53.352;-6.356;2022-12-18T05:59:57;5.50;99.90
35531;DHT22;21637;53.352;-6.356;2022-12-18T06:02:23;5.50;99.90
35531;DHT22;21637;53.352;-6.356;2022-12-18T06:04:48;5.60;99.90
35531;DHT22;21637;53.352;-6.356;2022-12-18T06:07:14;5.50;99.90
35531;DHT22;21637;53.352;-6.356;2022-12-18T06:09:39;5.60;99.90
35531;DHT22;21637;53.352;-6.356;2022-12-18T06:12:05;5.60;99.90
35531;DHT22;21637;53.352;-6.356;2022-12-18T06:14:31;5.60;99.90
35531;DHT22;21637;53.352;-6.356;2022-12-18T06:16:56;5.60;99.90
35531;DHT22;21637;53.352;-6.356;2022-12-18T06:19:22;5.50;99.90
35531;DHT22;21637;53.352;-6.356;2022-12-18T06:21:47;5.50;99.90
35531;DHT22;21637;53.352;-6.356;2022-12-18T06:24:14;5.50;99.90
35531;DHT22;21637;53.352;-6.356;2022-12-18T06:26:40;5.50;99.90
35531;DHT22;21637;53.352;-6.356;2022-12-18T06:29:05;5.50;99.90
35531;DHT22;21637;53.352;-6.356;2022-12-18T06:31:31;5.50;99.90
35531;DHT22;21637;53.352;-6.356;2022-12-18T06:33:56;5.50;99.90
35531;DHT22;21637;53.352;-6.356;2022-12-18T06:36:22;5.50;99.90
35531;DHT22;21637;53.352;-6.356;2022-12-18T06:38:48;5.50;99.90
35531;DHT22;21637;53.352;-6.356;2022-12-18T06:41:15;5.50;99.90
35531;DHT22;21637;53.352;-6.356;2022-12-18T06:43:41;5.50;99.90
35531;DHT22;21637;53.352;-6.356;2022-12-18T06:46:07;5.50;99.90
35531;DHT22;21637;53.352;-6.356;2022-12-18T06:48:33;5.50;99.90
35531;DHT22;21637;53.352;-6.356;2022-12-18T06:50:59;5.50;99.90
35531;DHT22;21637;53.352;-6.356;2022-12-18T06:53:24;5.50;99.90
35531;DHT22;21637;53.352;-6.356;2022-12-18T06:55:50;5.50;99.90
35531;DHT22;21637;53.352;-6.356;2022-12-18T06:58:16;5.50;99.90
35531;DHT22;21637;53.352;-6.356;2022-12-18T07:00:42;5.50;99.90
35531;DHT22;21637;53.352;-6.356;2022-12-18T07:03:08;5.50;99.90
35531;DHT22;21637;53.352;-6.356;2022-12-18T07:05:33;5.50;99.90
35531;DHT22;21637;53.352;-6.356;2022-12-18T07:07:59;5.50;99.90
35531;DHT22;21637;53.352;-6.356;2022-12-18T07:10:24;5.40;99.90
35531;DHT22;21637;53.352;-6.356;2022-12-18T07:12:50;5.40;99.90
35531;DHT22;21637;53.352;-6.356;2022-12-18T07:15:15;5.30;99.90
35531;DHT22;21637;53.352;-6.356;2022-12-18T07:17:41;5.40;99.90
35531;DHT22;21637;53.352;-6.356;2022-12-18T07:20:07;5.30;99.90
35531;DHT22;21637;53.352;-6.356;2022-12-18T07:22:33;5.30;99.90
35531;DHT22;21637;53.352;-6.356;2022-12-18T07:24:58;5.30;99.90
35531;DHT22;21637;53.352;-6.356;2022-12-18T07:27:24;5.30;99.90
35531;DHT22;21637;53.352;-6.356;2022-12-18T07:29:49;5.30;99.90
35531;DHT22;21637;53.352;-6.356;2022-12-18T07:32:15;5.30;99.90
35531;DHT22;21637;53.352;-6.356;2022-12-18T07:34:41;5.20;99.90
35531;DHT22;21637;53.352;-6.356;2022-12-18T07:37:06;5.20;99.90
35531;DHT22;21637;53.352;-6.356;2022-12-18T07:39:32;5.20;99.90
35531;DHT22;21637;53.352;-6.356;2022-12-18T07:41:57;5.20;99.90
35531;DHT22;21637;53.352;-6.356;2022-12-18T07:44:41;5.20;99.90
35531;DHT22;21637;53.352;-6.356;2022-12-18T07:47:07;5.20;99.90
35531;DHT22;21637;53.352;-6.356;2022-12-18T07:49:32;5.30;99.90
35531;DHT22;21637;53.352;-6.356;2022-12-18T07:51:58;5.30;99.90
35531;DHT22;21637;53.352;-6.356;2022-12-18T07:54:24;5.20;99.90
35531;DHT22;21637;53.352;-6.356;2022-12-18T07:56:50;5.30;99.90
35531;DHT22;21637;53.352;-6.356;2022-12-18T07:59:15;5.30;99.90
35531;DHT22;21637;53.352;-6.356;2022-12-18T08:01:41;5.30;99.90
35531;DHT22;21637;53.352;-6.356;2022-12-18T08:04:07;5.30;99.90
35531;DHT22;21637;53.352;-6.356;2022-12-18T08:06:32;5.40;99.90
35531;DHT22;21637;53.352;-6.356;2022-12-18T08:08:58;5.40;99.90
35531;DHT22;21637;53.352;-6.356;2022-12-18T08:11:24;5.40;99.90
35531;DHT22;21637;53.352;-6.356;2022-12-18T08:13:50;5.40;99.90
35531;DHT22;21637;53.352;-6.356;2022-12-18T08:16:16;5.40;99.90
35531;DHT22;21637;53.352;-6.356;2022-12-18T08:18:42;5.40;99.90
35531;DHT22;21637;53.352;-6.356;2022-12-18T08:21:11;5.40;99.90
35531;DHT22;21637;53.352;-6.356;2022-12-18T08:23:37;5.40;99.90
35531;DHT22;21637;53.352;-6.356;2022-12-18T08:26:02;5.50;99.90
35531;DHT22;21637;53.352;-6.356;2022-12-18T08:28:28;5.40;99.90
35531;DHT22;21637;53.352;-6.356;2022-12-18T08:30:53;5.40;99.90
35531;DHT22;21637;53.352;-6.356;2022-12-18T08:33:19;5.40;99.90
35531;DHT22;21637;53.352;-6.356;2022-12-18T08:35:44;5.40;99.90
35531;DHT22;21637;53.352;-6.356;2022-12-18T08:38:10;5.40;99.90
35531;DHT22;21637;53.352;-6.356;2022-12-18T08:40:36;5.40;99.90
35531;DHT22;21637;53.352;-6.356;2022-12-18T08:43:01;5.40;99.90
35531;DHT22;21637;53.352;-6.356;2022-12-18T08:45:45;5.30;99.90
35531;DHT22;21637;53.352;-6.356;2022-12-18T08:48:11;5.40;99.90
35531;DHT22;21637;53.352;-6.356;2022-12-18T08:50:36;5.40;99.90
35531;DHT22;21637;53.352;-6.356;2022-12-18T08:53:02;5.40;99.90
35531;DHT22;21637;53.352;-6.356;2022-12-18T08:55:27;5.40;99.90
35531;DHT22;21637;53.352;-6.356;2022-12-18T08:57:53;5.40;99.90
35531;DHT22;21637;53.352;-6.356;2022-12-18T09:00:19;5.40;99.90
35531;DHT22;21637;53.352;-6.356;2022-12-18T09:02:45;5.40;99.90
35531;DHT22;21637;53.352;-6.356;2022-12-18T09:05:10;5.50;99.90
35531;DHT22;21637;53.352;-6.356;2022-12-18T09:07:36;5.50;99.90
35531;DHT22;21637;53.352;-6.356;2022-12-18T09:10:02;5.40;99.90
35531;DHT22;21637;53.352;-6.356;2022-12-18T09:12:27;5.50;99.90
35531;DHT22;21637;53.352;-6.356;2022-12-18T09:14:53;5.50;99.90
35531;DHT22;21637;53.352;-6.356;2022-12-18T09:17:18;5.60;99.90
35531;DHT22;21637;53.352;-6.356;2022-12-18T09:19:44;5.60;99.90
35531;DHT22;21637;53.352;-6.356;2022-12-18T09:22:09;5.60;99.90
35531;DHT22;21637;53.352;-6.356;2022-12-18T09:24:35;5.70;99.90
35531;DHT22;21637;53.352;-6.356;2022-12-18T09:27:01;5.70;99.90
35531;DHT22;21637;53.352;-6.356;2022-12-18T09:29:26;5.70;99.90
35531;DHT22;21637;53.352;-6.356;2022-12-18T09:31:52;5.70;99.90
35531;DHT22;21637;53.352;-6.356;2022-12-18T09:34:17;5.70;99.90
35531;DHT22;21637;53.352;-6.356;2022-12-18T09:36:43;5.70;99.90
35531;DHT22;21637;53.352;-6.356;2022-12-18T09:39:09;5.70;99.90
35531;DHT22;21637;53.352;-6.356;2022-12-18T09:41:39;5.70;99.90
35531;DHT22;21637;53.352;-6.356;2022-12-18T09:44:27;5.70;99.90
35531;DHT22;21637;53.352;-6.356;2022-12-18T09:46:53;5.80;99.90
35531;DHT22;21637;53.352;-6.356;2022-12-18T09:49:21;5.80;99.90
35531;DHT22;21637;53.352;-6.356;2022-12-18T09:51:57;5.80;99.90
35531;DHT22;21637;53.352;-6.356;2022-12-18T09:54:44;5.80;99.90
35531;DHT22;21637;53.352;-6.356;2022-12-18T09:57:21;5.80;99.90
35531;DHT22;21637;53.352;-6.356;2022-12-18T09:59:58;5.80;99.90
35531;DHT22;21637;53.352;-6.356;2022-12-18T10:02:25;5.80;99.90
35531;DHT22;21637;53.352;-6.356;2022-12-18T10:07:25;5.90;99.90
35531;DHT22;21637;53.352;-6.356;2022-12-18T10:10:05;5.90;99.90
35531;DHT22;21637;53.352;-6.356;2022-12-18T10:12:32;5.90;99.90
35531;DHT22;21637;53.352;-6.356;2022-12-18T10:15:23;6.00;99.90
35531;DHT22;21637;53.352;-6.356;2022-12-18T10:20:38;6.00;99.90
35531;DHT22;21637;53.352;-6.356;2022-12-18T10:28:23;6.00;99.90
35531;DHT22;21637;53.352;-6.356;2022-12-18T10:30:49;6.00;99.90
35531;DHT22;21637;53.352;-6.356;2022-12-18T10:33:19;6.00;99.90
35531;DHT22;21637;53.352;-6.356;2022-12-18T10:35:45;6.00;99.90
35531;DHT22;21637;53.352;-6.356;2022-12-18T10:40:52;6.20;99.90
35531;DHT22;21637;53.352;-6.356;2022-12-18T10:43:25;6.20;99.90
35531;DHT22;21637;53.352;-6.356;2022-12-18T10:46:01;6.20;99.90
35531;DHT22;21637;53.352;-6.356;2022-12-18T10:48:27;6.20;99.90
35531;DHT22;21637;53.352;-6.356;2022-12-18T10:50:53;6.30;99.90
35531;DHT22;21637;53.352;-6.356;2022-12-18T10:53:21;6.40;99.90
35531;DHT22;21637;53.352;-6.356;2022-12-18T10:55:47;6.40;99.90
35531;DHT22;21637;53.352;-6.356;2022-12-18T11:03:33;6.50;99.90
35531;DHT22;21637;53.352;-6.356;2022-12-18T11:06:02;6.50;99.90
35531;DHT22;21637;53.352;-6.356;2022-12-18T11:08:28;6.60;99.90
35531;DHT22;21637;53.352;-6.356;2022-12-18T11:10:53;6.60;99.90
35531;DHT22;21637;53.352;-6.356;2022-12-18T11:13:23;6.60;99.90
35531;DHT22;21637;53.352;-6.356;2022-12-18T11:15:49;6.60;99.90
35531;DHT22;21637;53.352;-6.356;2022-12-18T11:18:28;6.60;99.90
35531;DHT22;21637;53.352;-6.356;2022-12-18T11:21:11;6.60;99.90
35531;DHT22;21637;53.352;-6.356;2022-12-18T11:23:46;6.60;99.90
35531;DHT22;21637;53.352;-6.356;2022-12-18T11:26:12;6.60;99.90
35531;DHT22;21637;53.352;-6.356;2022-12-18T11:28:39;6.70;99.90
35531;DHT22;21637;53.352;-6.356;2022-12-18T11:33:34;6.70;99.90
35531;DHT22;21637;53.352;-6.356;2022-12-18T11:36:01;6.70;99.90
35531;DHT22;21637;53.352;-6.356;2022-12-18T11:38:35;6.70;99.90
35531;DHT22;21637;53.352;-6.356;2022-12-18T11:41:03;6.80;99.90
35531;DHT22;21637;53.352;-6.356;2022-12-18T11:46:05;6.80;99.90
35531;DHT22;21637;53.352;-6.356;2022-12-18T11:48:37;6.80;99.90
35531;DHT22;21637;53.352;-6.356;2022-12-18T11:51:09;6.90;99.90
35531;DHT22;21637;53.352;-6.356;2022-12-18T11:53:36;6.90;99.90
35531;DHT22;21637;53.352;-6.356;2022-12-18T11:58:38;7.00;99.90
35531;DHT22;21637;53.352;-6.356;2022-12-18T12:01:10;7.00;99.90
35531;DHT22;21637;53.352;-6.356;2022-12-18T12:19:33;7.20;99.90
35531;DHT22;21637;53.352;-6.356;2022-12-18T12:22:19;7.20;99.90
35531;DHT22;21637;53.352;-6.356;2022-12-18T12:24:56;7.20;99.90
35531;DHT22;21637;53.352;-6.356;2022-12-18T12:40:02;7.50;99.90
35531;DHT22;21637;53.352;-6.356;2022-12-18T12:42:31;7.60;99.90
35531;DHT22;21637;53.352;-6.356;2022-12-18T12:45:18;7.60;99.90
35531;DHT22;21637;53.352;-6.356;2022-12-18T12:47:47;7.70;99.90
35531;DHT22;21637;53.352;-6.356;2022-12-18T12:50:15;7.70;99.90
35531;DHT22;21637;53.352;-6.356;2022-12-18T12:52:51;7.70;99.90
35531;DHT22;21637;53.352;-6.356;2022-12-18T12:55:28;7.80;99.90
35531;DHT22;21637;53.352;-6.356;2022-12-18T13:00:22;7.90;99.90
35531;DHT22;21637;53.352;-6.356;2022-12-18T13:02:56;7.90;99.90
35531;DHT22;21637;53.352;-6.356;2022-12-18T13:08:01;8.00;99.90
35531;DHT22;21637;53.352;-6.356;2022-12-18T13:10:35;8.10;99.90
35531;DHT22;21637;53.352;-6.356;2022-12-18T13:13:02;8.20;99.90
35531;DHT22;21637;53.352;-6.356;2022-12-18T13:15:37;8.30;99.90
35531;DHT22;21637;53.352;-6.356;2022-12-18T13:18:05;8.30;99.90
35531;DHT22;21637;53.352;-6.356;2022-12-18T13:20:38;8.40;99.90
35531;DHT22;21637;53.352;-6.356;2022-12-18T13:25:45;8.50;99.90
35531;DHT22;21637;53.352;-6.356;2022-12-18T13:28:14;8.50;99.90
35531;DHT22;21637;53.352;-6.356;2022-12-18T13:30:41;8.50;99.90
35531;DHT22;21637;53.352;-6.356;2022-12-18T13:38:23;8.80;99.90
35531;DHT22;21637;53.352;-6.356;2022-12-18T13:40:58;8.80;99.90
35531;DHT22;21637;53.352;-6.356;2022-12-18T13:48:41;9.00;99.90
35531;DHT22;21637;53.352;-6.356;2022-12-18T13:51:15;9.10;99.90
35531;DHT22;21637;53.352;-6.356;2022-12-18T13:53:43;9.20;99.90
35531;DHT22;21637;53.352;-6.356;2022-12-18T13:56:14;9.20;99.90
35531;DHT22;21637;53.352;-6.356;2022-12-18T13:58:40;9.20;99.90
35531;DHT22;21637;53.352;-6.356;2022-12-18T14:01:15;9.20;99.90
35531;DHT22;21637;53.352;-6.356;2022-12-18T14:03:46;9.30;99.90
35531;DHT22;21637;53.352;-6.356;2022-12-18T14:06:11;9.30;99.90
35531;DHT22;21637;53.352;-6.356;2022-12-18T14:08:39;9.50;99.90
35531;DHT22;21637;53.352;-6.356;2022-12-18T14:11:05;9.50;99.90
35531;DHT22;21637;53.352;-6.356;2022-12-18T14:13:33;9.50;99.90
35531;DHT22;21637;53.352;-6.356;2022-12-18T14:16:01;9.50;99.90
35531;DHT22;21637;53.352;-6.356;2022-12-18T14:18:50;9.50;99.90
35531;DHT22;21637;53.352;-6.356;2022-12-18T14:23:49;9.40;99.90
35531;DHT22;21637;53.352;-6.356;2022-12-18T14:26:25;9.40;99.90
35531;DHT22;21637;53.352;-6.356;2022-12-18T14:28:52;9.40;99.90
35531;DHT22;21637;53.352;-6.356;2022-12-18T14:31:29;9.30;99.90
35531;DHT22;21637;53.352;-6.356;2022-12-18T14:33:55;9.30;99.90
35531;DHT22;21637;53.352;-6.356;2022-12-18T14:36:22;9.40;99.90
35531;DHT22;21637;53.352;-6.356;2022-12-18T14:38:52;9.50;99.90
35531;DHT22;21637;53.352;-6.356;2022-12-18T14:41:19;9.50;99.90
35531;DHT22;21637;53.352;-6.356;2022-12-18T14:43:46;9.50;99.90
35531;DHT22;21637;53.352;-6.356;2022-12-18T14:46:29;9.50;99.90
35531;DHT22;21637;53.352;-6.356;2022-12-18T14:48:55;9.50;99.90
35531;DHT22;21637;53.352;-6.356;2022-12-18T14:51:25;9.50;99.90
35531;DHT22;21637;53.352;-6.356;2022-12-18T14:53:57;9.40;99.90
35531;DHT22;21637;53.352;-6.356;2022-12-18T14:58:53;9.40;99.90
35531;DHT22;21637;53.352;-6.356;2022-12-18T15:01:29;9.40;99.90
35531;DHT22;21637;53.352;-6.356;2022-12-18T15:03:57;9.50;99.90
35531;DHT22;21637;53.352;-6.356;2022-12-18T15:06:28;9.40;99.90
35531;DHT22;21637;53.352;-6.356;2022-12-18T15:08:54;9.40;99.90
35531;DHT22;21637;53.352;-6.356;2022-12-18T15:11:26;9.40;99.90
35531;DHT22;21637;53.352;-6.356;2022-12-18T15:13:52;9.40;99.90
35531;DHT22;21637;53.352;-6.356;2022-12-18T15:16:18;9.40;99.90
35531;DHT22;21637;53.352;-6.356;2022-12-18T15:18:43;9.40;99.90
35531;DHT22;21637;53.352;-6.356;2022-12-18T15:21:11;9.40;99.90
35531;DHT22;21637;53.352;-6.356;2022-12-18T15:28:30;9.40;99.90
35531;DHT22;21637;53.352;-6.356;2022-12-18T15:31:19;9.40;99.90
35531;DHT22;21637;53.352;-6.356;2022-12-18T15:36:16;9.40;99.90
35531;DHT22;21637;53.352;-6.356;2022-12-18T15:38:46;9.50;99.90
35531;DHT22;21637;53.352;-6.356;2022-12-18T15:41:15;9.40;99.90
35531;DHT22;21637;53.352;-6.356;2022-12-18T15:43:41;9.40;99.90
35531;DHT22;21637;53.352;-6.356;2022-12-18T15:46:09;9.50;99.90
35531;DHT22;21637;53.352;-6.356;2022-12-18T15:48:40;9.40;99.90
35531;DHT22;21637;53.352;-6.356;2022-12-18T15:51:28;9.50;99.90
35531;DHT22;21637;53.352;-6.356;2022-12-18T15:53:53;9.50;99.90
35531;DHT22;21637;53.352;-6.356;2022-12-18T15:56:19;9.60;99.90
35531;DHT22;21637;53.352;-6.356;2022-12-18T15:59:04;9.60;99.90
35531;DHT22;21637;53.352;-6.356;2022-12-18T16:01:34;9.60;99.90
35531;DHT22;21637;53.352;-6.356;2022-12-18T16:03:59;9.60;99.90
35531;DHT22;21637;53.352;-6.356;2022-12-18T16:06:25;9.60;99.90
35531;DHT22;21637;53.352;-6.356;2022-12-18T16:08:50;9.70;99.90
35531;DHT22;21637;53.352;-6.356;2022-12-18T16:11:20;9.60;99.90
35531;DHT22;21637;53.352;-6.356;2022-12-18T16:16:50;9.60;99.90
35531;DHT22;21637;53.352;-6.356;2022-12-18T16:19:17;9.70;99.90
35531;DHT22;21637;53.352;-6.356;2022-12-18T16:21:43;9.60;99.90
35531;DHT22;21637;53.352;-6.356;2022-12-18T16:24:15;9.60;99.90
35531;DHT22;21637;53.352;-6.356;2022-12-18T16:26:41;9.70;99.90
35531;DHT22;21637;53.352;-6.356;2022-12-18T16:29:07;9.70;99.90
35531;DHT22;21637;53.352;-6.356;2022-12-18T16:31:33;9.60;99.90
35531;DHT22;21637;53.352;-6.356;2022-12-18T16:34:18;9.60;99.90
35531;DHT22;21637;53.352;-6.356;2022-12-18T16:36:46;9.60;99.90
35531;DHT22;21637;53.352;-6.356;2022-12-18T16:39:12;9.60;99.90
35531;DHT22;21637;53.352;-6.356;2022-12-18T16:41:37;9.70;99.90
35531;DHT22;21637;53.352;-6.356;2022-12-18T16:44:03;9.50;99.90
35531;DHT22;21637;53.352;-6.356;2022-12-18T16:46:28;9.50;99.90
35531;DHT22;21637;53.352;-6.356;2022-12-18T16:48:56;9.60;99.90
35531;DHT22;21637;53.352;-6.356;2022-12-18T16:51:21;9.60;99.90
35531;DHT22;21637;53.352;-6.356;2022-12-18T16:53:47;9.70;99.90
35531;DHT22;21637;53.352;-6.356;2022-12-18T16:56:12;9.60;99.90
35531;DHT22;21637;53.352;-6.356;2022-12-18T16:58:38;9.60;99.90
35531;DHT22;21637;53.352;-6.356;2022-12-18T17:01:07;9.80;99.90
35531;DHT22;21637;53.352;-6.356;2022-12-18T17:03:33;9.90;99.90
35531;DHT22;21637;53.352;-6.356;2022-12-18T17:06:05;10.20;99.90
35531;DHT22;21637;53.352;-6.356;2022-12-18T17:08:31;10.50;99.90
35531;DHT22;21637;53.352;-6.356;2022-12-18T17:11:02;10.60;99.90
35531;DHT22;21637;53.352;-6.356;2022-12-18T17:13:28;10.60;99.90
35531;DHT22;21637;53.352;-6.356;2022-12-18T17:15:53;10.70;99.90
35531;DHT22;21637;53.352;-6.356;2022-12-18T17:18:19;10.70;99.90
35531;DHT22;21637;53.352;-6.356;2022-12-18T17:20:45;10.80;99.90
35531;DHT22;21637;53.352;-6.356;2022-12-18T17:23:11;10.90;99.90
35531;DHT22;21637;53.352;-6.356;2022-12-18T17:25:38;11.00;99.90
35531;DHT22;21637;53.352;-6.356;2022-12-18T17:28:04;11.20;99.90
35531;DHT22;21637;53.352;-6.356;2022-12-18T17:30:29;11.10;99.90
35531;DHT22;21637;53.352;-6.356;2022-12-18T17:32:55;11.20;99.90
35531;DHT22;21637;53.352;-6.356;2022-12-18T17:35:21;11.20;99.90
35531;DHT22;21637;53.352;-6.356;2022-12-18T17:37:46;11.20;99.90